createdAt,value
2019-03-24T00:01:41.217Z,7.35
2019-03-24T00:04:04.395Z,7.60
2019-03-24T00:06:31.694Z,6.97
2019-03-24T00:08:59.046Z,7.33
2019-03-24T00:11:27.319Z,7.58
2019-03-24T00:13:54.648Z,7.75
2019-03-24T00:16:24.851Z,8.25
2019-03-24T00:18:53.839Z,7.97
2019-03-24T00:21:21.290Z,7.90
2019-03-24T00:23:49.340Z,7.00
2019-03-24T00:26:16.737Z,7.47
2019-03-24T00:28:47.385Z,7.80
2019-03-24T00:31:14.663Z,7.42
2019-03-24T00:33:42.057Z,7.53
2019-03-24T00:36:09.294Z,7.65
2019-03-24T00:38:36.586Z,7.53
2019-03-24T00:41:03.971Z,7.28
2019-03-24T00:43:31.297Z,7.33
2019-03-24T00:45:58.772Z,7.12
2019-03-24T00:48:26.109Z,7.53
2019-03-24T00:50:53.485Z,7.40
2019-03-24T00:53:21.461Z,6.80
2019-03-24T00:55:51.532Z,7.20
2019-03-24T00:58:18.854Z,7.12
2019-03-24T01:00:46.960Z,7.70
2019-03-24T01:03:15.044Z,7.45
2019-03-24T01:05:42.313Z,6.60
2019-03-24T01:08:09.661Z,7.17
2019-03-24T01:10:37.018Z,7.67
2019-03-24T01:13:05.844Z,7.70
2019-03-24T01:15:33.124Z,7.70
2019-03-24T01:18:00.954Z,7.83
2019-03-24T01:20:28.182Z,7.08
2019-03-24T01:22:56.320Z,7.00
2019-03-24T01:25:24.204Z,7.50
2019-03-24T01:27:53.188Z,6.75
2019-03-24T01:30:20.673Z,6.97
2019-03-24T01:32:47.927Z,7.03
2019-03-24T01:35:18.090Z,7.03
2019-03-24T01:37:45.504Z,6.67
2019-03-24T01:40:12.846Z,7.30
2019-03-24T01:42:42.478Z,7.62
2019-03-24T01:45:09.798Z,7.62
2019-03-24T01:47:38.745Z,6.77
2019-03-24T01:50:06.751Z,6.55
2019-03-24T01:52:35.582Z,7.10
2019-03-24T01:55:02.925Z,7.50
2019-03-24T01:57:30.221Z,7.67
2019-03-24T01:59:58.148Z,6.55
2019-03-24T02:02:25.458Z,6.70
2019-03-24T02:04:52.774Z,6.85
2019-03-24T02:07:20.147Z,6.22
2019-03-24T02:09:49.089Z,6.75
2019-03-24T02:12:18.923Z,6.78
2019-03-24T02:14:46.312Z,6.20
2019-03-24T02:17:13.668Z,6.87
2019-03-24T02:19:40.977Z,6.42
2019-03-24T02:22:08.789Z,6.75
2019-03-24T02:24:37.720Z,6.35
2019-03-24T02:27:05.488Z,6.67
2019-03-24T02:29:33.106Z,6.83
2019-03-24T02:32:01.755Z,6.17
2019-03-24T02:34:29.011Z,7.08
2019-03-24T02:36:57.961Z,6.75
2019-03-24T02:39:27.994Z,6.53
2019-03-24T02:41:56.915Z,6.60
2019-03-24T02:44:24.201Z,6.28
2019-03-24T02:46:52.547Z,6.83
2019-03-24T02:49:19.896Z,6.03
2019-03-24T02:51:47.265Z,6.60
2019-03-24T02:54:14.607Z,6.72
2019-03-24T02:56:41.929Z,5.67
2019-03-24T02:59:09.194Z,5.67
2019-03-24T03:01:36.580Z,6.47
2019-03-24T03:04:03.959Z,6.58
2019-03-24T03:06:31.191Z,6.35
2019-03-24T03:08:58.475Z,6.40
2019-03-24T03:11:25.835Z,6.10
2019-03-24T03:13:54.805Z,6.35
2019-03-24T03:16:37.560Z,6.17
2019-03-24T03:18:52.647Z,6.00
2019-03-24T03:21:19.909Z,6.05
2019-03-24T03:23:47.176Z,5.58
2019-03-24T03:26:14.498Z,5.80
2019-03-24T03:28:41.808Z,5.80
2019-03-24T03:31:10.723Z,6.10
2019-03-24T03:33:38.080Z,5.85
2019-03-24T03:36:06.784Z,5.80
2019-03-24T03:38:34.101Z,5.65
2019-03-24T03:41:02.086Z,5.53
2019-03-24T03:43:32.205Z,5.50
2019-03-24T03:46:01.152Z,5.50
2019-03-24T03:48:28.555Z,5.30
2019-03-24T03:50:55.813Z,6.58
2019-03-24T03:53:23.145Z,5.92
2019-03-24T03:55:52.053Z,6.03
2019-03-24T03:58:20.945Z,5.65
2019-03-24T04:00:48.412Z,5.50
2019-03-24T04:03:18.587Z,6.00
2019-03-24T04:05:47.474Z,5.78
2019-03-24T04:08:16.511Z,5.22
2019-03-24T04:10:43.827Z,5.50
2019-03-24T04:13:11.149Z,5.43
2019-03-24T04:15:39.244Z,5.28
2019-03-24T04:18:10.084Z,4.87
2019-03-24T04:20:38.970Z,5.72
2019-03-24T04:23:06.254Z,5.62
2019-03-24T04:25:33.480Z,5.25
2019-03-24T04:28:01.919Z,5.35
2019-03-24T04:30:29.875Z,5.25
2019-03-24T04:32:57.066Z,5.28
2019-03-24T04:35:24.337Z,5.20
2019-03-24T04:37:53.227Z,4.92
2019-03-24T04:40:20.630Z,5.58
2019-03-24T04:42:47.984Z,5.67
2019-03-24T04:45:15.294Z,5.05
2019-03-24T04:47:45.469Z,5.35
2019-03-24T04:50:12.900Z,5.37
2019-03-24T04:52:40.177Z,5.20
2019-03-24T04:55:07.967Z,5.80
2019-03-24T04:57:35.242Z,4.65
2019-03-24T05:00:03.838Z,5.83
2019-03-24T05:02:31.331Z,5.90
2019-03-24T05:04:58.537Z,4.90
2019-03-24T05:07:27.310Z,4.97
2019-03-24T05:09:55.732Z,5.62
2019-03-24T05:12:22.918Z,5.43
2019-03-24T05:14:50.124Z,5.12
2019-03-24T05:17:26.774Z,5.35
2019-03-24T05:19:48.057Z,5.45
2019-03-24T05:22:15.383Z,4.93
2019-03-24T05:24:42.634Z,5.42
2019-03-24T05:27:10.426Z,5.47
2019-03-24T05:29:38.348Z,5.95
2019-03-24T05:32:05.773Z,6.25
2019-03-24T05:34:34.273Z,5.67
2019-03-24T05:37:02.639Z,5.50
2019-03-24T05:39:30.702Z,5.60
2019-03-24T05:41:59.228Z,5.37
2019-03-24T05:44:28.092Z,5.85
2019-03-24T05:46:58.578Z,5.03
2019-03-24T05:49:26.472Z,5.87
2019-03-24T05:51:53.774Z,5.05
2019-03-24T05:54:21.161Z,5.47
2019-03-24T05:56:48.466Z,5.37
2019-03-24T05:59:16.388Z,4.95
2019-03-24T06:01:43.761Z,5.70
2019-03-24T06:04:13.655Z,5.22
2019-03-24T06:06:40.959Z,5.03
2019-03-24T06:09:08.216Z,5.80
2019-03-24T06:11:35.430Z,5.17
2019-03-24T06:14:02.738Z,5.65
2019-03-24T06:16:30.175Z,5.65
2019-03-24T06:18:57.653Z,6.30
2019-03-24T06:21:24.938Z,5.20
2019-03-24T06:23:52.196Z,5.30
2019-03-24T06:26:19.520Z,6.75
2019-03-24T06:28:46.769Z,6.08
2019-03-24T06:31:14.073Z,6.30
2019-03-24T06:33:42.031Z,6.33
2019-03-24T06:36:09.246Z,5.95
2019-03-24T06:38:36.508Z,6.40
2019-03-24T06:41:04.144Z,6.50
2019-03-24T06:43:33.080Z,5.72
2019-03-24T06:46:00.378Z,6.80
2019-03-24T06:48:28.918Z,7.25
2019-03-24T06:50:56.285Z,6.80
2019-03-24T06:53:23.643Z,6.62
2019-03-24T06:55:50.935Z,6.50
2019-03-24T06:58:18.258Z,6.78
2019-03-24T07:00:45.614Z,6.53
2019-03-24T07:03:12.911Z,6.92
2019-03-24T07:05:40.868Z,6.50
2019-03-24T07:08:08.109Z,6.97
2019-03-24T07:10:35.391Z,6.70
2019-03-24T07:13:02.651Z,5.90
2019-03-24T07:15:29.897Z,6.50
2019-03-24T07:17:57.309Z,6.30
2019-03-24T07:20:24.642Z,6.30
2019-03-24T07:22:53.255Z,6.30
2019-03-24T07:25:20.462Z,6.60
2019-03-24T07:27:49.036Z,6.83
2019-03-24T07:30:17.911Z,5.78
2019-03-24T07:32:45.171Z,5.90
2019-03-24T07:35:14.042Z,5.73
2019-03-24T07:37:41.404Z,5.03
2019-03-24T07:40:08.642Z,5.20
2019-03-24T07:42:35.926Z,5.03
2019-03-24T07:45:03.915Z,5.03
2019-03-24T07:47:31.289Z,4.92
2019-03-24T07:49:58.494Z,5.67
2019-03-24T07:52:25.976Z,7.22
2019-03-24T07:54:54.925Z,6.20
2019-03-24T07:57:22.211Z,6.22
2019-03-24T07:59:49.822Z,6.47
2019-03-24T08:02:17.226Z,5.60
2019-03-24T08:04:45.440Z,6.13
2019-03-24T08:07:12.833Z,6.80
2019-03-24T08:09:40.108Z,5.53
2019-03-24T08:12:07.445Z,6.63
2019-03-24T08:14:34.759Z,6.15
2019-03-24T08:17:03.511Z,5.92
2019-03-24T08:19:30.800Z,5.87
2019-03-24T08:21:58.293Z,6.80
2019-03-24T08:24:26.207Z,5.37
2019-03-24T08:26:53.527Z,5.95
2019-03-24T08:29:20.836Z,5.60
2019-03-24T08:31:48.043Z,5.90
2019-03-24T08:34:15.343Z,5.60
2019-03-24T08:36:42.655Z,5.97
2019-03-24T08:39:09.844Z,5.85
2019-03-24T08:41:38.768Z,6.62
2019-03-24T08:44:06.200Z,5.83
2019-03-24T08:46:35.046Z,5.57
2019-03-24T08:49:03.337Z,5.83
2019-03-24T08:51:30.725Z,5.75
2019-03-24T08:53:58.079Z,5.80
2019-03-24T08:56:25.330Z,5.92
2019-03-24T08:58:52.613Z,6.67
2019-03-24T09:01:19.922Z,5.70
2019-03-24T09:03:47.309Z,5.90
2019-03-24T09:06:14.532Z,5.78
2019-03-24T09:08:41.780Z,6.25
2019-03-24T09:11:09.089Z,6.00
2019-03-24T09:13:36.379Z,5.90
2019-03-24T09:16:05.337Z,5.50
2019-03-24T09:18:32.632Z,5.90
2019-03-24T09:20:59.879Z,5.65
2019-03-24T09:23:27.149Z,5.10
2019-03-24T09:25:54.557Z,5.40
2019-03-24T09:28:21.834Z,6.17
2019-03-24T09:30:51.709Z,5.30
2019-03-24T09:33:25.758Z,5.70
2019-03-24T09:35:53.707Z,4.85
2019-03-24T09:38:22.460Z,5.28
2019-03-24T09:40:51.472Z,4.77
2019-03-24T09:43:18.820Z,5.00
2019-03-24T09:45:46.067Z,4.53
2019-03-24T09:48:13.395Z,5.42
2019-03-24T09:50:40.668Z,5.30
2019-03-24T09:53:07.946Z,4.70
2019-03-24T09:55:35.208Z,4.90
2019-03-24T09:58:02.551Z,4.20
2019-03-24T10:00:29.780Z,4.75
2019-03-24T10:02:57.186Z,5.15
2019-03-24T10:05:24.418Z,4.85
2019-03-24T10:07:51.815Z,4.55
2019-03-24T10:10:19.162Z,4.20
2019-03-24T10:12:46.567Z,4.25
2019-03-24T10:15:13.761Z,4.42
2019-03-24T10:17:41.118Z,4.47
2019-03-24T10:20:08.508Z,3.70
2019-03-24T10:22:35.832Z,4.55
2019-03-24T10:25:03.830Z,4.50
2019-03-24T10:27:31.231Z,4.50
2019-03-24T10:29:58.510Z,3.77
2019-03-24T10:32:25.814Z,3.98
2019-03-24T10:34:53.167Z,4.08
2019-03-24T10:37:20.478Z,4.12
2019-03-24T10:39:47.756Z,3.60
2019-03-24T10:42:16.013Z,4.00
2019-03-24T10:44:43.257Z,4.10
2019-03-24T10:47:10.538Z,4.00
2019-03-24T10:49:37.882Z,3.58
2019-03-24T10:52:05.160Z,4.40
2019-03-24T10:54:32.731Z,4.05
2019-03-24T10:57:00.162Z,4.30
2019-03-24T10:59:28.535Z,4.15
2019-03-24T11:01:55.736Z,4.08
2019-03-24T11:04:24.044Z,3.90
2019-03-24T11:06:51.426Z,4.47
2019-03-24T11:09:18.825Z,3.55
2019-03-24T11:11:46.181Z,3.22
2019-03-24T11:14:13.392Z,3.12
2019-03-24T11:16:40.840Z,3.27
2019-03-24T11:19:08.203Z,3.15
2019-03-24T11:21:35.587Z,5.40
2019-03-24T11:24:02.842Z,3.35
2019-03-24T11:26:30.260Z,2.90
2019-03-24T11:28:57.680Z,2.98
2019-03-24T11:31:25.019Z,2.75
2019-03-24T11:33:53.054Z,3.17
2019-03-24T11:36:33.397Z,3.00
2019-03-24T11:39:07.247Z,3.40
2019-03-24T11:41:34.659Z,3.10
2019-03-24T11:44:19.481Z,2.87
2019-03-24T11:46:47.620Z,3.47
2019-03-24T11:49:20.590Z,3.30
2019-03-24T11:51:49.511Z,3.23
2019-03-24T11:54:16.860Z,2.35
2019-03-24T11:56:44.197Z,2.65
2019-03-24T11:59:13.001Z,2.40
2019-03-24T12:01:41.345Z,2.60
2019-03-24T12:04:08.717Z,2.90
2019-03-24T12:06:38.550Z,2.72
2019-03-24T12:09:06.159Z,3.12
2019-03-24T12:11:43.579Z,2.93
2019-03-24T12:14:06.975Z,2.83
2019-03-24T12:16:34.335Z,2.67
2019-03-24T12:19:02.316Z,2.83
2019-03-24T12:21:29.636Z,3.30
2019-03-24T12:23:56.942Z,2.67
2019-03-24T12:26:24.204Z,2.70
2019-03-24T12:28:51.466Z,2.55
2019-03-24T12:31:18.673Z,2.67
2019-03-24T12:33:45.934Z,2.87
2019-03-24T12:36:13.178Z,2.60
2019-03-24T12:38:40.504Z,2.40
2019-03-24T12:41:07.712Z,3.25
2019-03-24T12:43:34.986Z,2.70
2019-03-24T12:46:02.293Z,2.70
2019-03-24T12:48:29.636Z,2.63
2019-03-24T12:50:56.946Z,3.02
2019-03-24T12:53:24.196Z,2.40
2019-03-24T12:55:51.467Z,2.33
2019-03-24T12:58:18.878Z,2.90
2019-03-24T13:00:46.221Z,2.37
2019-03-24T13:03:13.568Z,2.33
2019-03-24T13:05:40.962Z,2.52
2019-03-24T13:08:12.578Z,2.30
2019-03-24T13:10:40.521Z,2.77
2019-03-24T13:13:07.959Z,2.52
2019-03-24T13:15:35.270Z,2.67
2019-03-24T13:18:02.601Z,2.50
2019-03-24T13:20:38.125Z,2.83
2019-03-24T13:23:00.379Z,2.50
2019-03-24T13:25:27.741Z,2.65
2019-03-24T13:27:55.062Z,2.65
2019-03-24T13:30:22.394Z,2.70
2019-03-24T13:32:49.581Z,3.40
2019-03-24T13:35:16.947Z,2.90
2019-03-24T13:37:45.033Z,2.52
2019-03-24T13:40:13.389Z,2.52
2019-03-24T13:42:40.742Z,2.60
2019-03-24T13:45:08.141Z,2.90
2019-03-24T13:47:35.507Z,2.50
2019-03-24T13:50:03.028Z,2.80
2019-03-24T13:52:30.425Z,2.80
2019-03-24T13:54:57.746Z,2.58
2019-03-24T13:57:26.819Z,3.08
2019-03-24T13:59:54.333Z,2.67
2019-03-24T14:02:21.668Z,2.67
2019-03-24T14:04:49.045Z,2.53
2019-03-24T14:07:16.362Z,2.58
2019-03-24T14:09:44.195Z,2.65
2019-03-24T14:12:11.455Z,2.85
2019-03-24T14:14:38.805Z,3.10
2019-03-24T14:17:06.810Z,2.37
2019-03-24T14:19:34.177Z,3.10
2019-03-24T14:22:01.508Z,3.37
2019-03-24T14:24:28.937Z,2.87
2019-03-24T14:26:56.209Z,3.13
2019-03-24T14:29:27.104Z,3.55
2019-03-24T14:31:54.207Z,3.97
2019-03-24T14:34:21.741Z,4.05
2019-03-24T14:36:49.011Z,3.35
2019-03-24T14:39:17.848Z,3.23
2019-03-24T14:41:45.146Z,3.70
2019-03-24T14:44:12.468Z,3.62
2019-03-24T14:46:39.780Z,3.30
2019-03-24T14:49:07.136Z,3.55
2019-03-24T14:51:34.397Z,3.00
2019-03-24T14:54:01.750Z,3.10
2019-03-24T14:56:29.713Z,3.33
2019-03-24T14:58:57.008Z,3.87
2019-03-24T15:01:24.261Z,3.90
2019-03-24T15:03:52.509Z,3.70
2019-03-24T15:06:19.832Z,3.90
2019-03-24T15:08:47.168Z,3.20
2019-03-24T15:11:14.584Z,3.70
2019-03-24T15:13:41.914Z,3.60
2019-03-24T15:16:09.202Z,3.25
2019-03-24T15:18:36.474Z,3.37
2019-03-24T15:21:05.893Z,3.43
2019-03-24T15:23:32.778Z,3.80
2019-03-24T15:26:00.007Z,3.20
2019-03-24T15:28:27.540Z,3.42
2019-03-24T15:30:54.780Z,3.73
2019-03-24T15:33:22.086Z,3.60
2019-03-24T15:35:49.347Z,3.60
2019-03-24T15:38:16.538Z,3.30
2019-03-24T15:40:43.821Z,3.77
2019-03-24T15:43:11.097Z,3.42
2019-03-24T15:45:38.960Z,3.35
2019-03-24T15:48:06.326Z,3.60
2019-03-24T15:50:33.621Z,2.92
2019-03-24T15:53:02.024Z,3.10
2019-03-24T15:55:29.280Z,2.95
2019-03-24T15:57:56.508Z,3.30
2019-03-24T16:00:30.181Z,3.55
2019-03-24T16:02:57.536Z,3.42
2019-03-24T16:05:26.467Z,3.83
2019-03-24T16:07:53.831Z,3.85
2019-03-24T16:10:21.147Z,3.90
2019-03-24T16:12:48.435Z,4.20
2019-03-24T16:15:15.706Z,4.33
2019-03-24T16:17:43.095Z,4.65
2019-03-24T16:20:10.408Z,4.55
2019-03-24T16:22:42.489Z,4.67
2019-03-24T16:25:09.839Z,4.65
2019-03-24T16:27:37.186Z,4.93
2019-03-24T16:30:07.154Z,4.67
2019-03-24T16:32:34.526Z,3.45
2019-03-24T16:35:02.617Z,4.37
2019-03-24T16:37:29.933Z,4.45
2019-03-24T16:39:57.534Z,4.30
2019-03-24T16:42:24.736Z,3.62
2019-03-24T16:44:51.994Z,4.00
2019-03-24T16:47:19.391Z,4.20
2019-03-24T16:49:47.369Z,16.95
2019-03-24T16:52:14.659Z,5.65
2019-03-24T16:54:42.666Z,5.28
2019-03-24T16:57:11.618Z,5.10
2019-03-24T16:59:38.943Z,5.60
2019-03-24T17:02:06.357Z,5.60
2019-03-24T17:04:33.586Z,5.47
2019-03-24T17:07:01.024Z,4.80
2019-03-24T17:09:28.340Z,4.00
2019-03-24T17:11:57.041Z,3.62
2019-03-24T17:14:24.478Z,2.98
2019-03-24T17:16:51.732Z,3.10
2019-03-24T17:19:19.590Z,3.00
2019-03-24T17:21:50.191Z,3.42
2019-03-24T17:24:15.801Z,3.60
2019-03-24T17:26:43.079Z,3.00
2019-03-24T17:29:10.431Z,3.37
2019-03-24T17:31:37.710Z,3.27
2019-03-24T17:34:06.058Z,3.20
2019-03-24T17:36:33.325Z,3.58
2019-03-24T17:39:00.645Z,3.15
2019-03-24T17:41:28.033Z,3.90
2019-03-24T17:44:03.251Z,3.37
2019-03-24T17:46:24.298Z,3.70
2019-03-24T17:48:51.756Z,3.20
2019-03-24T17:51:19.284Z,3.72
2019-03-24T17:53:46.595Z,3.62
2019-03-24T17:56:13.884Z,3.50
2019-03-24T17:58:41.253Z,3.65
2019-03-24T18:01:08.610Z,3.60
2019-03-24T18:03:35.891Z,3.37
2019-03-24T18:06:03.203Z,3.92
2019-03-24T18:08:30.497Z,4.17
2019-03-24T18:10:57.817Z,4.08
2019-03-24T18:13:25.475Z,3.87
2019-03-24T18:15:56.011Z,4.60
2019-03-24T18:18:23.294Z,4.40
2019-03-24T18:20:50.748Z,4.20
2019-03-24T18:23:18.209Z,4.30
2019-03-24T18:25:45.577Z,3.80
2019-03-24T18:28:12.847Z,4.45
2019-03-24T18:30:40.147Z,3.95
2019-03-24T18:33:08.098Z,3.70
2019-03-24T18:35:35.408Z,3.72
2019-03-24T18:38:02.744Z,3.70
2019-03-24T18:40:30.388Z,4.28
2019-03-24T18:42:57.679Z,4.65
2019-03-24T18:45:24.936Z,7.20
2019-03-24T18:47:52.268Z,9.90
2019-03-24T18:50:19.518Z,46.40
2019-03-24T18:52:46.821Z,26.55
2019-03-24T18:55:14.137Z,8.93
2019-03-24T18:57:41.512Z,8.60
2019-03-24T19:00:09.891Z,17.45
2019-03-24T19:02:37.261Z,10.65
2019-03-24T19:05:06.161Z,7.95
2019-03-24T19:07:33.432Z,5.72
2019-03-24T19:10:02.517Z,4.25
2019-03-24T19:12:29.888Z,4.40
2019-03-24T19:14:57.160Z,4.25
2019-03-24T19:17:24.496Z,5.00
2019-03-24T19:19:51.719Z,5.45
2019-03-24T19:22:20.736Z,4.63
2019-03-24T19:24:47.977Z,4.83
2019-03-24T19:27:15.364Z,5.15
2019-03-24T19:29:42.740Z,4.90
2019-03-24T19:32:10.182Z,5.10
2019-03-24T19:34:37.433Z,5.00
2019-03-24T19:37:04.946Z,4.50
2019-03-24T19:39:32.333Z,4.73
2019-03-24T19:42:00.955Z,5.33
2019-03-24T19:44:28.297Z,5.05
2019-03-24T19:46:55.679Z,7.83
2019-03-24T19:49:22.958Z,5.53
2019-03-24T19:51:50.467Z,7.78
2019-03-24T19:54:17.677Z,5.30
2019-03-24T19:56:44.899Z,7.17
2019-03-24T19:59:12.169Z,11.38
2019-03-24T20:01:39.442Z,8.55
2019-03-24T20:04:06.711Z,8.40
2019-03-24T20:06:33.957Z,6.37
2019-03-24T20:09:01.451Z,11.12
2019-03-24T20:11:28.713Z,6.43
2019-03-24T20:13:56.036Z,3.80
2019-03-24T20:16:23.281Z,4.80
2019-03-24T20:18:50.692Z,5.37
2019-03-24T20:21:17.969Z,3.50
2019-03-24T20:23:45.366Z,4.58
2019-03-24T20:26:12.641Z,4.40
2019-03-24T20:28:39.993Z,6.10
2019-03-24T20:31:07.370Z,4.10
2019-03-24T20:33:34.584Z,2.87
2019-03-24T20:36:01.925Z,3.30
2019-03-24T20:38:29.275Z,3.37
2019-03-24T20:40:56.583Z,3.33
2019-03-24T20:43:24.007Z,3.72
2019-03-24T20:45:51.444Z,3.90
2019-03-24T20:48:18.708Z,4.10
2019-03-24T20:50:46.227Z,3.42
2019-03-24T20:53:18.384Z,4.00
2019-03-24T20:55:42.561Z,4.00
2019-03-24T20:58:11.219Z,4.50
2019-03-24T21:00:38.518Z,3.17
2019-03-24T21:03:06.370Z,2.90
2019-03-24T21:05:33.970Z,3.00
2019-03-24T21:08:01.251Z,3.20
2019-03-24T21:10:28.639Z,3.22
2019-03-24T21:12:56.178Z,3.22
2019-03-24T21:15:23.795Z,3.83
2019-03-24T21:17:51.243Z,3.67
2019-03-24T21:20:18.687Z,4.10
2019-03-24T21:22:46.103Z,3.50
2019-03-24T21:25:14.968Z,3.83
2019-03-24T21:27:42.197Z,3.60
2019-03-24T21:30:09.645Z,3.35
2019-03-24T21:32:39.395Z,4.30
2019-03-24T21:35:08.094Z,4.50
2019-03-24T21:37:35.455Z,4.90
2019-03-24T21:40:06.093Z,4.47
2019-03-24T21:42:32.450Z,4.30
2019-03-24T21:44:59.803Z,4.50
2019-03-24T21:47:27.143Z,4.20
2019-03-24T21:49:54.493Z,4.08
2019-03-24T21:52:21.889Z,5.22
2019-03-24T21:54:49.170Z,4.50
2019-03-24T21:57:16.401Z,4.70
2019-03-24T21:59:43.697Z,4.67
2019-03-24T22:02:11.086Z,5.25
2019-03-24T22:04:38.474Z,5.83
2019-03-24T22:07:05.746Z,5.20
2019-03-24T22:09:33.042Z,4.70
2019-03-24T22:12:00.341Z,5.40
2019-03-24T22:14:27.638Z,5.45
2019-03-24T22:16:55.016Z,4.55
2019-03-24T22:19:22.261Z,5.05
2019-03-24T22:21:49.585Z,4.50
2019-03-24T22:24:17.325Z,5.67
2019-03-24T22:26:45.728Z,4.70
2019-03-24T22:29:13.404Z,4.12
2019-03-24T22:31:40.778Z,4.67
2019-03-24T22:34:08.085Z,5.05
2019-03-24T22:36:35.421Z,4.80
2019-03-24T22:39:02.951Z,5.17
2019-03-24T22:41:31.796Z,3.72
2019-03-24T22:43:59.240Z,4.72
2019-03-24T22:46:26.517Z,4.50
2019-03-24T22:48:53.775Z,4.90
2019-03-24T22:51:20.988Z,4.10
2019-03-24T22:53:48.262Z,4.47
2019-03-24T22:56:15.639Z,4.05
2019-03-24T22:58:43.023Z,4.43
2019-03-24T23:01:10.685Z,4.37
2019-03-24T23:03:38.017Z,4.17
2019-03-24T23:06:05.334Z,4.08
2019-03-24T23:08:32.723Z,4.35
2019-03-24T23:10:59.999Z,3.87
2019-03-24T23:13:27.199Z,4.10
2019-03-24T23:15:54.622Z,4.45
2019-03-24T23:18:21.900Z,4.30
2019-03-24T23:20:49.135Z,3.85
2019-03-24T23:23:16.452Z,3.80
2019-03-24T23:25:43.672Z,3.70
2019-03-24T23:28:10.978Z,3.87
2019-03-24T23:30:38.330Z,3.42
2019-03-24T23:33:05.851Z,3.70
2019-03-24T23:35:33.213Z,3.35
2019-03-24T23:38:00.492Z,3.47
2019-03-24T23:40:27.792Z,3.75
2019-03-24T23:42:55.042Z,3.58
2019-03-24T23:45:22.429Z,3.95
2019-03-24T23:47:49.717Z,3.75
2019-03-24T23:50:16.954Z,3.33
2019-03-24T23:52:44.255Z,3.42
2019-03-24T23:55:16.211Z,3.50
2019-03-24T23:57:43.543Z,3.80
